Time;durP1;ratioP1;P1;durP2;ratioP2;P2;SDS_P1;SDS_P2;PMS_P1;PMS_P2;Temp;Humidity;BMP_temperature;BMP_pressure;BME280_temperature;BME280_humidity;BME280_pressure;Samples;Min_cycle;Max_cycle;Signal;HPM_P1;HPM_P2
2021/09/05 00:01:48;;;;;;;;;;;16.30;99.90;;;;;;5033000;28;20363;-50
2021/09/05 00:04:52;;;;;;;;;;;16.30;99.90;;;;;;5032392;28;19920;-50
2021/09/05 00:07:56;;;;;;;;;;;16.20;99.90;;;;;;5032396;28;19916;-50
2021/09/05 00:11:00;;;;;;;;;;;16.20;99.90;;;;;;5032521;28;19916;-53
2021/09/05 00:14:04;;;;;;;;;;;16.20;99.90;;;;;;5033220;28;20375;-50
2021/09/05 00:17:09;;;;;;;;;;;16.20;99.90;;;;;;5033145;28;19924;-51
2021/09/05 00:20:13;;;;;;;;;;;16.20;99.90;;;;;;5033040;28;20393;-50
2021/09/05 00:23:17;;;;;;;;;;;16.30;99.90;;;;;;5032503;28;19920;-52
2021/09/05 00:26:21;;;;;;;;;;;16.30;99.90;;;;;;5032868;28;19913;-49
2021/09/05 00:29:25;;;;;;;;;;;16.30;99.90;;;;;;5032679;28;19909;-50
2021/09/05 00:32:29;;;;;;;;;;;16.30;99.90;;;;;;5031481;28;20297;-50
2021/09/05 00:35:37;;;;;;;;;;;16.30;99.90;;;;;;5032750;28;19928;-52
2021/09/05 00:38:42;;;;;;;;;;;16.30;99.90;;;;;;5031543;28;19916;-51
2021/09/05 00:41:47;;;;;;;;;;;16.20;99.90;;;;;;5032184;28;19924;-51
2021/09/05 00:44:51;;;;;;;;;;;16.20;99.90;;;;;;5031630;28;19932;-50
2021/09/05 00:47:56;;;;;;;;;;;16.10;99.90;;;;;;5031499;28;19909;-50
2021/09/05 00:51:00;;;;;;;;;;;16.10;99.90;;;;;;5031489;28;19909;-52
2021/09/05 00:54:05;;;;;;;;;;;16.00;99.90;;;;;;5031413;28;20506;-54
2021/09/05 00:57:11;;;;;;;;;;;16.00;99.90;;;;;;5031557;28;19913;-51
2021/09/05 01:00:19;;;;;;;;;;;16.00;99.90;;;;;;5031627;28;19924;-52
2021/09/05 01:03:23;;;;;;;;;;;15.90;99.90;;;;;;5031433;28;19940;-51
2021/09/05 01:06:28;;;;;;;;;;;15.90;99.90;;;;;;5032920;28;20295;-52
2021/09/05 01:09:34;;;;;;;;;;;16.00;99.90;;;;;;5032369;28;19916;-49
2021/09/05 01:12:40;;;;;;;;;;;16.10;99.90;;;;;;5031273;28;19917;-53
2021/09/05 01:15:44;;;;;;;;;;;16.00;99.90;;;;;;5031813;28;19905;-55
2021/09/05 01:18:54;;;;;;;;;;;16.00;99.90;;;;;;5031513;28;20275;-51
2021/09/05 01:22:17;;;;;;;;;;;16.10;99.90;;;;;;5031722;28;19913;-50
2021/09/05 01:25:40;;;;;;;;;;;16.10;99.90;;;;;;5032002;28;19916;-50
2021/09/05 01:29:13;;;;;;;;;;;16.10;99.90;;;;;;5031490;28;19935;-56
2021/09/05 01:32:40;;;;;;;;;;;15.90;99.90;;;;;;5031484;28;19909;-49
2021/09/05 01:36:04;;;;;;;;;;;15.70;99.90;;;;;;5031939;28;20367;-49
2021/09/05 01:39:26;;;;;;;;;;;15.60;99.90;;;;;;5030582;28;19915;-55
2021/09/05 01:42:57;;;;;;;;;;;15.50;99.90;;;;;;5030992;28;19923;-50
2021/09/05 01:46:19;;;;;;;;;;;15.40;99.90;;;;;;5032022;28;19916;-50
2021/09/05 01:49:46;;;;;;;;;;;15.50;99.90;;;;;;5030387;28;19920;-50
2021/09/05 01:53:08;;;;;;;;;;;15.50;99.90;;;;;;5030827;28;19939;-52
2021/09/05 01:56:43;;;;;;;;;;;15.50;99.90;;;;;;5030424;28;19916;-52
2021/09/05 02:00:26;;;;;;;;;;;15.40;99.90;;;;;;5030860;28;19924;-50
2021/09/05 02:03:41;;;;;;;;;;;15.30;99.90;;;;;;5030221;28;20724;-51
2021/09/05 02:07:03;;;;;;;;;;;15.30;99.90;;;;;;5031531;28;19913;-50
2021/09/05 02:10:26;;;;;;;;;;;15.20;99.90;;;;;;5030990;28;19916;-50
2021/09/05 02:13:53;;;;;;;;;;;15.20;99.90;;;;;;5030129;28;19920;-52
2021/09/05 02:17:27;;;;;;;;;;;15.20;99.90;;;;;;5031090;28;19916;-51
2021/09/05 02:20:44;;;;;;;;;;;15.20;99.90;;;;;;5029674;28;19920;-49
2021/09/05 02:24:11;;;;;;;;;;;15.20;99.90;;;;;;5029660;28;19920;-52
2021/09/05 02:27:35;;;;;;;;;;;15.20;99.90;;;;;;5030604;28;19916;-51
2021/09/05 02:30:59;;;;;;;;;;;15.30;99.90;;;;;;5030341;28;19908;-49
2021/09/05 02:34:26;;;;;;;;;;;15.30;99.90;;;;;;5025867;28;19916;-50
2021/09/05 02:38:07;;;;;;;;;;;15.30;99.90;;;;;;5028110;28;19931;-50
2021/09/05 02:41:31;;;;;;;;;;;15.40;99.90;;;;;;5030115;28;20390;-50
2021/09/05 02:44:51;;;;;;;;;;;15.40;99.90;;;;;;5027931;28;19920;-52
2021/09/05 02:48:11;;;;;;;;;;;15.40;99.90;;;;;;5029006;28;20412;-50
2021/09/05 02:51:15;;;;;;;;;;;15.30;99.90;;;;;;5030266;28;19918;-50
2021/09/05 02:54:51;;;;;;;;;;;15.20;99.90;;;;;;5030258;28;19935;-51
2021/09/05 02:58:26;;;;;;;;;;;15.10;99.90;;;;;;5030124;28;19916;-50
2021/09/05 03:01:51;;;;;;;;;;;15.10;99.90;;;;;;5028946;28;19924;-50
2021/09/05 03:05:13;;;;;;;;;;;15.00;99.90;;;;;;5030244;28;20070;-50
2021/09/05 03:08:38;;;;;;;;;;;14.90;99.90;;;;;;5030390;28;19988;-51
2021/09/05 03:12:01;;;;;;;;;;;14.90;99.90;;;;;;5029157;28;19913;-51
2021/09/05 03:15:18;;;;;;;;;;;14.80;99.90;;;;;;5029832;28;20283;-50
2021/09/05 03:18:42;;;;;;;;;;;14.70;99.90;;;;;;5030137;28;19924;-50
2021/09/05 03:22:03;;;;;;;;;;;14.70;99.90;;;;;;5028778;28;19913;-49
2021/09/05 03:25:25;;;;;;;;;;;14.60;99.90;;;;;;5029549;28;19923;-49
2021/09/05 03:28:50;;;;;;;;;;;14.50;99.90;;;;;;5029058;28;19916;-50
2021/09/05 03:32:16;;;;;;;;;;;14.60;99.90;;;;;;5030422;28;19920;-51
2021/09/05 03:35:58;;;;;;;;;;;14.50;99.90;;;;;;5007700;28;19936;-51
2021/09/05 03:39:18;;;;;;;;;;;14.40;99.90;;;;;;4998193;28;19917;-51
2021/09/05 03:43:00;;;;;;;;;;;14.40;99.90;;;;;;5007450;28;19933;-52
2021/09/05 03:46:42;;;;;;;;;;;14.40;99.90;;;;;;5003073;28;19916;-52
2021/09/05 03:50:04;;;;;;;;;;;14.40;99.90;;;;;;4991569;28;19974;-51
2021/09/05 03:53:09;;;;;;;;;;;14.30;99.90;;;;;;5028598;28;20291;-49
2021/09/05 03:56:13;;;;;;;;;;;14.30;99.90;;;;;;5028790;28;19951;-50
2021/09/05 03:59:17;;;;;;;;;;;14.30;99.90;;;;;;5028747;28;19916;-50
2021/09/05 04:02:21;;;;;;;;;;;14.30;99.90;;;;;;5028495;28;19920;-51
2021/09/05 04:05:25;;;;;;;;;;;14.20;99.90;;;;;;5028175;28;19932;-52
2021/09/05 04:08:39;;;;;;;;;;;14.20;99.90;;;;;;5028961;28;19932;-51
2021/09/05 04:11:44;;;;;;;;;;;14.20;99.90;;;;;;5029417;28;19916;-50
2021/09/05 04:14:48;;;;;;;;;;;14.20;99.90;;;;;;5029489;28;19920;-51
2021/09/05 04:17:53;;;;;;;;;;;14.20;99.90;;;;;;5028856;28;19916;-52
2021/09/05 04:20:57;;;;;;;;;;;14.10;99.90;;;;;;5029354;28;19920;-54
2021/09/05 04:24:01;;;;;;;;;;;14.10;99.90;;;;;;5029573;28;19916;-51
2021/09/05 04:27:05;;;;;;;;;;;14.10;99.90;;;;;;5032844;28;19920;-53
2021/09/05 04:30:10;;;;;;;;;;;14.10;99.90;;;;;;5032674;28;19916;-53
2021/09/05 04:33:13;;;;;;;;;;;14.20;99.90;;;;;;5032718;28;19916;-50
2021/09/05 04:36:17;;;;;;;;;;;14.10;99.90;;;;;;5032300;28;19951;-50
2021/09/05 04:39:22;;;;;;;;;;;14.10;99.90;;;;;;5032760;28;19909;-52
2021/09/05 04:42:26;;;;;;;;;;;14.10;99.90;;;;;;5032273;28;19923;-54
2021/09/05 04:45:31;;;;;;;;;;;14.20;99.90;;;;;;5031809;28;19916;-51
2021/09/05 04:48:35;;;;;;;;;;;14.20;99.90;;;;;;5032585;28;19913;-50
2021/09/05 04:51:39;;;;;;;;;;;14.20;99.90;;;;;;5032122;28;19924;-54
2021/09/05 04:54:44;;;;;;;;;;;14.10;99.90;;;;;;5032376;28;20334;-52
2021/09/05 04:57:48;;;;;;;;;;;14.20;99.90;;;;;;5032533;28;20551;-50
2021/09/05 05:00:52;;;;;;;;;;;14.20;99.90;;;;;;5031496;28;19920;-49
2021/09/05 05:03:56;;;;;;;;;;;14.10;99.90;;;;;;5032269;28;19916;-51
2021/09/05 05:07:01;;;;;;;;;;;13.90;99.90;;;;;;5031615;28;19920;-51
2021/09/05 05:10:05;;;;;;;;;;;13.80;99.90;;;;;;5032482;28;20292;-51
2021/09/05 05:13:10;;;;;;;;;;;13.80;99.90;;;;;;5031945;28;19916;-51
2021/09/05 05:16:14;;;;;;;;;;;13.70;99.90;;;;;;5031700;28;19920;-55
2021/09/05 05:19:18;;;;;;;;;;;13.80;99.90;;;;;;5031983;28;19920;-50
2021/09/05 05:22:22;;;;;;;;;;;13.80;99.90;;;;;;5031658;28;19936;-50
2021/09/05 05:25:26;;;;;;;;;;;13.90;99.90;;;;;;5031449;28;19916;-50
2021/09/05 05:28:30;;;;;;;;;;;13.90;99.90;;;;;;5031893;28;19915;-51
2021/09/05 05:31:35;;;;;;;;;;;14.00;99.90;;;;;;5031580;28;19935;-50
2021/09/05 05:34:40;;;;;;;;;;;15.20;99.90;;;;;;5032076;28;19916;-53
2021/09/05 05:37:43;;;;;;;;;;;17.80;99.90;;;;;;5031571;28;19916;-55
2021/09/05 05:40:47;;;;;;;;;;;20.40;99.90;;;;;;5031842;28;19920;-53
2021/09/05 05:43:51;;;;;;;;;;;22.30;99.90;;;;;;5031980;28;19916;-53
2021/09/05 05:46:56;;;;;;;;;;;23.30;99.90;;;;;;5030590;28;20398;-51
2021/09/05 05:50:00;;;;;;;;;;;23.60;99.90;;;;;;5031620;28;19936;-53
2021/09/05 05:53:05;;;;;;;;;;;24.50;99.90;;;;;;5031465;28;20385;-51
2021/09/05 05:56:10;;;;;;;;;;;24.70;99.90;;;;;;5030406;28;19909;-51
2021/09/05 05:59:14;;;;;;;;;;;25.80;99.90;;;;;;5031347;28;19920;-51
2021/09/05 06:02:18;;;;;;;;;;;26.80;98.50;;;;;;5031148;28;20287;-52
2021/09/05 06:05:22;;;;;;;;;;;27.70;97.40;;;;;;5031274;28;19916;-52
2021/09/05 06:08:26;;;;;;;;;;;26.80;96.80;;;;;;5031391;28;19916;-52
2021/09/05 06:11:30;;;;;;;;;;;27.50;96.50;;;;;;5030861;28;19920;-52
2021/09/05 06:14:34;;;;;;;;;;;28.20;95.40;;;;;;5031271;28;19916;-52
2021/09/05 06:17:38;;;;;;;;;;;28.90;92.90;;;;;;5030874;28;20279;-51
2021/09/05 06:20:42;;;;;;;;;;;27.00;93.20;;;;;;5031232;28;19909;-51
2021/09/05 06:23:46;;;;;;;;;;;27.40;93.40;;;;;;5031028;28;19920;-52
2021/09/05 06:26:51;;;;;;;;;;;27.00;93.80;;;;;;5030694;28;19916;-51
2021/09/05 06:29:55;;;;;;;;;;;27.60;94.20;;;;;;5031169;28;19935;-51
2021/09/05 06:32:59;;;;;;;;;;;27.40;93.30;;;;;;5030781;28;20359;-51
2021/09/05 06:36:04;;;;;;;;;;;27.00;93.60;;;;;;5030847;28;19920;-53
2021/09/05 06:39:08;;;;;;;;;;;27.60;93.20;;;;;;5030802;28;19916;-52
2021/09/05 06:42:12;;;;;;;;;;;28.80;92.20;;;;;;5030362;28;20131;-49
2021/09/05 06:45:17;;;;;;;;;;;29.20;92.10;;;;;;5030776;28;19916;-49
2021/09/05 06:48:22;;;;;;;;;;;29.40;90.60;;;;;;5029808;28;19916;-49
2021/09/05 06:51:26;;;;;;;;;;;28.90;90.10;;;;;;5029460;28;19913;-49
2021/09/05 06:54:30;;;;;;;;;;;28.90;90.20;;;;;;5030670;28;19912;-49
2021/09/05 06:57:35;;;;;;;;;;;29.50;90.50;;;;;;5030150;28;19924;-52
2021/09/05 07:00:39;;;;;;;;;;;29.80;87.60;;;;;;5030333;28;19916;-56
2021/09/05 07:03:43;;;;;;;;;;;25.80;92.00;;;;;;5030165;28;19920;-53
2021/09/05 07:06:47;;;;;;;;;;;26.80;91.80;;;;;;5030540;28;20374;-49
2021/09/05 07:09:52;;;;;;;;;;;25.50;93.70;;;;;;5030344;28;19916;-50
2021/09/05 07:12:56;;;;;;;;;;;24.90;94.40;;;;;;5030070;28;20291;-51
2021/09/05 07:16:00;;;;;;;;;;;25.20;94.50;;;;;;5030230;28;20382;-49
2021/09/05 07:19:04;;;;;;;;;;;26.80;93.70;;;;;;5030205;28;19921;-49
2021/09/05 07:22:08;;;;;;;;;;;27.00;92.70;;;;;;5029815;28;19923;-49
2021/09/05 07:25:12;;;;;;;;;;;27.30;91.90;;;;;;5030019;28;19936;-50
2021/09/05 07:28:16;;;;;;;;;;;26.40;93.60;;;;;;5029775;28;19916;-51
2021/09/05 07:31:20;;;;;;;;;;;28.50;91.40;;;;;;5029748;28;19913;-51
2021/09/05 07:34:24;;;;;;;;;;;28.00;91.40;;;;;;5030010;28;19912;-49
2021/09/05 07:37:29;;;;;;;;;;;29.90;89.90;;;;;;5029568;28;19917;-51
2021/09/05 07:40:32;;;;;;;;;;;28.70;89.70;;;;;;5029762;28;19916;-51
2021/09/05 07:43:38;;;;;;;;;;;28.60;90.40;;;;;;5029827;28;19924;-50
2021/09/05 07:46:42;;;;;;;;;;;30.90;87.70;;;;;;5029745;28;19917;-49
2021/09/05 07:49:46;;;;;;;;;;;29.90;87.00;;;;;;5029848;28;19920;-50
2021/09/05 07:52:50;;;;;;;;;;;30.20;86.50;;;;;;5029458;28;19924;-50
2021/09/05 07:55:54;;;;;;;;;;;29.90;84.50;;;;;;5029559;28;19932;-50
2021/09/05 07:58:59;;;;;;;;;;;28.50;87.00;;;;;;5029749;28;19912;-50
2021/09/05 08:02:03;;;;;;;;;;;29.50;87.30;;;;;;5032946;28;19920;-50
2021/09/05 08:05:08;;;;;;;;;;;29.80;85.10;;;;;;5033223;28;19986;-50
2021/09/05 08:08:13;;;;;;;;;;;29.40;85.80;;;;;;5033053;28;19909;-50
2021/09/05 08:11:18;;;;;;;;;;;30.00;85.30;;;;;;5033017;28;19916;-50
2021/09/05 08:14:21;;;;;;;;;;;30.00;85.00;;;;;;5033005;28;19916;-54
2021/09/05 08:17:25;;;;;;;;;;;29.30;86.90;;;;;;5032817;28;19916;-52
2021/09/05 08:20:29;;;;;;;;;;;32.40;83.50;;;;;;5033394;28;19916;-52
2021/09/05 08:23:35;;;;;;;;;;;34.90;79.40;;;;;;5032864;28;20307;-52
2021/09/05 08:26:41;;;;;;;;;;;35.80;76.00;;;;;;5032988;28;19924;-53
2021/09/05 08:29:45;;;;;;;;;;;34.90;74.50;;;;;;5032940;28;19924;-51
2021/09/05 08:32:49;;;;;;;;;;;35.80;73.20;;;;;;5032650;28;19916;-50
2021/09/05 08:35:53;;;;;;;;;;;35.70;72.80;;;;;;5032850;28;20409;-52
2021/09/05 08:38:57;;;;;;;;;;;34.50;72.30;;;;;;5032364;28;19917;-53
2021/09/05 08:42:02;;;;;;;;;;;36.30;71.70;;;;;;5032417;28;20228;-51
2021/09/05 08:45:09;;;;;;;;;;;37.60;69.00;;;;;;5031789;28;19916;-52
2021/09/05 08:48:15;;;;;;;;;;;35.90;69.00;;;;;;5032217;28;20295;-52
2021/09/05 08:51:19;;;;;;;;;;;34.10;70.50;;;;;;5032398;28;20303;-53
2021/09/05 08:54:25;;;;;;;;;;;33.60;71.50;;;;;;5032546;28;19920;-50
2021/09/05 08:57:29;;;;;;;;;;;35.40;69.40;;;;;;5032338;28;19924;-52
2021/09/05 09:00:34;;;;;;;;;;;37.30;67.60;;;;;;5032249;28;19920;-51
2021/09/05 09:03:39;;;;;;;;;;;37.40;66.50;;;;;;5032431;28;19924;-52
2021/09/05 09:06:44;;;;;;;;;;;37.70;65.00;;;;;;5032390;28;19920;-55
2021/09/05 09:09:57;;;;;;;;;;;37.50;63.60;;;;;;5031962;28;20564;-52
2021/09/05 09:13:02;;;;;;;;;;;40.20;61.70;;;;;;5031506;28;20287;-52
2021/09/05 09:16:07;;;;;;;;;;;41.80;58.60;;;;;;5032161;28;19916;-52
2021/09/05 09:19:24;;;;;;;;;;;43.40;56.90;;;;;;5031458;28;19928;-52
2021/09/05 09:22:28;;;;;;;;;;;45.10;55.00;;;;;;5031757;28;19920;-56
2021/09/05 09:25:32;;;;;;;;;;;44.00;53.50;;;;;;5031808;28;20303;-54
2021/09/05 09:28:44;;;;;;;;;;;44.60;54.00;;;;;;5031579;28;20170;-53
2021/09/05 09:31:57;;;;;;;;;;;45.70;54.00;;;;;;5031549;28;19984;-54
2021/09/05 09:35:02;;;;;;;;;;;45.60;52.60;;;;;;5031826;28;19916;-54
2021/09/05 09:38:05;;;;;;;;;;;46.50;52.30;;;;;;5031577;28;20031;-50
2021/09/05 09:41:11;;;;;;;;;;;46.40;52.00;;;;;;5031496;28;19909;-51
2021/09/05 09:44:15;;;;;;;;;;;45.70;52.20;;;;;;5031601;28;19919;-50
2021/09/05 09:47:19;;;;;;;;;;;46.50;51.90;;;;;;5031803;28;20394;-50
2021/09/05 09:50:23;;;;;;;;;;;46.40;51.10;;;;;;5031179;28;19920;-50
2021/09/05 09:53:28;;;;;;;;;;;45.50;51.30;;;;;;5030672;28;19920;-51
2021/09/05 09:56:34;;;;;;;;;;;45.20;51.40;;;;;;5031194;28;20390;-52
2021/09/05 09:59:38;;;;;;;;;;;45.30;51.20;;;;;;5030966;28;20387;-51
2021/09/05 10:02:43;;;;;;;;;;;46.00;50.20;;;;;;5031019;28;19924;-55
2021/09/05 10:05:47;;;;;;;;;;;47.10;49.40;;;;;;5031102;28;19951;-55
2021/09/05 10:08:53;;;;;;;;;;;46.20;49.40;;;;;;5030631;28;20304;-52
2021/09/05 10:11:57;;;;;;;;;;;45.10;50.30;;;;;;5030731;28;19932;-53
2021/09/05 10:15:03;;;;;;;;;;;45.60;50.10;;;;;;5030887;28;19967;-53
2021/09/05 10:18:10;;;;;;;;;;;45.90;48.60;;;;;;5031160;28;19909;-52
2021/09/05 10:21:18;;;;;;;;;;;45.50;49.00;;;;;;5029885;28;19920;-51
2021/09/05 10:24:23;;;;;;;;;;;45.60;48.60;;;;;;5030305;28;20394;-54
2021/09/05 10:27:38;;;;;;;;;;;45.20;47.70;;;;;;5031217;28;19935;-51
2021/09/05 10:30:57;;;;;;;;;;;44.80;48.20;;;;;;5030522;28;20299;-54
2021/09/05 10:34:01;;;;;;;;;;;44.90;47.70;;;;;;5030478;28;19916;-51
2021/09/05 10:37:06;;;;;;;;;;;45.50;47.60;;;;;;5030404;28;19920;-52
2021/09/05 10:40:11;;;;;;;;;;;45.50;47.50;;;;;;5030152;28;19936;-53
2021/09/05 10:43:15;;;;;;;;;;;44.20;47.50;;;;;;5030440;28;19920;-53
2021/09/05 10:46:20;;;;;;;;;;;44.80;47.50;;;;;;5030127;28;19909;-54
2021/09/05 10:49:38;;;;;;;;;;;45.90;47.10;;;;;;5029956;28;20365;-54
2021/09/05 10:52:47;;;;;;;;;;;46.80;46.90;;;;;;5030124;28;19924;-53
2021/09/05 10:56:04;;;;;;;;;;;47.90;46.20;;;;;;5030249;28;19916;-51
2021/09/05 10:59:08;;;;;;;;;;;47.10;44.30;;;;;;5030392;28;19924;-52
2021/09/05 11:02:12;;;;;;;;;;;45.90;44.20;;;;;;5030166;28;19920;-50
2021/09/05 11:05:18;;;;;;;;;;;45.40;44.50;;;;;;5030093;28;19943;-51
2021/09/05 11:08:22;;;;;;;;;;;46.40;44.30;;;;;;5030149;28;19936;-53
2021/09/05 11:11:47;;;;;;;;;;;46.50;44.10;;;;;;5029875;28;19916;-51
2021/09/05 11:14:53;;;;;;;;;;;46.50;44.10;;;;;;5030052;28;20394;-51
2021/09/05 11:17:59;;;;;;;;;;;46.30;43.70;;;;;;5030128;28;19916;-51
2021/09/05 11:21:04;;;;;;;;;;;45.60;44.00;;;;;;5029457;28;19920;-51
2021/09/05 11:24:08;;;;;;;;;;;46.40;43.70;;;;;;5030041;28;19999;-51
2021/09/05 11:27:14;;;;;;;;;;;47.50;42.90;;;;;;5030013;28;19924;-52
2021/09/05 11:30:19;;;;;;;;;;;46.20;43.80;;;;;;5029541;28;19932;-51
2021/09/05 11:33:26;;;;;;;;;;;45.20;44.10;;;;;;5029934;28;20319;-55
2021/09/05 11:36:30;;;;;;;;;;;44.00;44.70;;;;;;5033957;28;19916;-50
2021/09/05 11:39:35;;;;;;;;;;;43.10;45.40;;;;;;5033731;28;19940;-55
2021/09/05 11:42:45;;;;;;;;;;;42.10;45.40;;;;;;5033729;28;20390;-51
2021/09/05 11:45:50;;;;;;;;;;;41.80;46.30;;;;;;5033560;28;19916;-50
2021/09/05 11:48:55;;;;;;;;;;;43.60;45.70;;;;;;5033583;28;19963;-50
2021/09/05 11:51:59;;;;;;;;;;;44.60;44.90;;;;;;5033211;28;19942;-52
2021/09/05 11:55:13;;;;;;;;;;;45.50;44.40;;;;;;5033634;28;20663;-51
2021/09/05 11:58:18;;;;;;;;;;;46.00;44.00;;;;;;5033839;28;19916;-51
2021/09/05 12:01:22;;;;;;;;;;;43.90;44.80;;;;;;5032819;28;20307;-52
2021/09/05 12:04:28;;;;;;;;;;;41.40;46.20;;;;;;5032563;28;19916;-52
2021/09/05 12:07:38;;;;;;;;;;;40.00;47.10;;;;;;5032612;28;19932;-52
2021/09/05 12:10:46;;;;;;;;;;;40.20;46.90;;;;;;5032907;28;19909;-50
2021/09/05 12:13:58;;;;;;;;;;;40.60;47.10;;;;;;5033364;28;19909;-52
2021/09/05 12:17:16;;;;;;;;;;;41.60;46.70;;;;;;5033512;28;19948;-52
2021/09/05 12:20:22;;;;;;;;;;;40.90;47.40;;;;;;5033055;28;20283;-52
2021/09/05 12:23:26;;;;;;;;;;;40.10;47.60;;;;;;5032628;28;19920;-53
2021/09/05 12:26:36;;;;;;;;;;;39.60;47.80;;;;;;5033367;28;20283;-52
2021/09/05 12:29:42;;;;;;;;;;;38.40;48.30;;;;;;5033261;28;19916;-50
2021/09/05 12:33:03;;;;;;;;;;;38.10;49.10;;;;;;5033254;28;19909;-52
2021/09/05 12:36:10;;;;;;;;;;;38.10;49.00;;;;;;5032752;28;19931;-54
2021/09/05 12:39:20;;;;;;;;;;;37.10;49.40;;;;;;5033147;28;20417;-54
2021/09/05 12:42:26;;;;;;;;;;;36.90;50.10;;;;;;5032644;28;19913;-52
2021/09/05 12:45:31;;;;;;;;;;;39.00;49.10;;;;;;5032450;28;19916;-55
2021/09/05 12:48:38;;;;;;;;;;;41.30;47.00;;;;;;5032656;28;19916;-52
2021/09/05 12:51:58;;;;;;;;;;;40.30;47.40;;;;;;5032042;28;20311;-52
2021/09/05 12:55:03;;;;;;;;;;;38.00;49.20;;;;;;5032761;28;19924;-55
2021/09/05 12:58:07;;;;;;;;;;;38.30;48.70;;;;;;5031995;28;19932;-55
2021/09/05 13:01:28;;;;;;;;;;;37.60;49.70;;;;;;5031714;28;19916;-52
2021/09/05 13:04:34;;;;;;;;;;;37.90;49.40;;;;;;5032433;28;19947;-51
2021/09/05 13:07:40;;;;;;;;;;;37.00;50.40;;;;;;5032364;28;19909;-53
2021/09/05 13:10:44;;;;;;;;;;;34.60;50.20;;;;;;5031929;28;19924;-53
2021/09/05 13:13:48;;;;;;;;;;;33.80;51.50;;;;;;5032224;28;20386;-50
2021/09/05 13:16:53;;;;;;;;;;;33.40;52.30;;;;;;5032016;28;19928;-54
2021/09/05 13:19:57;;;;;;;;;;;32.70;53.10;;;;;;5031944;28;19963;-51
2021/09/05 13:23:02;;;;;;;;;;;34.00;52.60;;;;;;5031387;28;19913;-56
2021/09/05 13:26:08;;;;;;;;;;;35.50;51.30;;;;;;5031875;28;20386;-54
2021/09/05 13:29:13;;;;;;;;;;;37.00;50.50;;;;;;5031824;28;19916;-52
2021/09/05 13:32:17;;;;;;;;;;;37.60;49.10;;;;;;5031542;28;20283;-53
2021/09/05 13:35:22;;;;;;;;;;;38.10;48.90;;;;;;5032022;28;19916;-54
2021/09/05 13:38:27;;;;;;;;;;;36.80;49.30;;;;;;5031731;28;19909;-51
2021/09/05 13:41:32;;;;;;;;;;;34.90;50.70;;;;;;5030974;28;19932;-50
2021/09/05 13:44:40;;;;;;;;;;;33.40;52.50;;;;;;5031566;28;19930;-50
2021/09/05 13:47:45;;;;;;;;;;;33.00;53.00;;;;;;5031650;28;19912;-57
2021/09/05 13:50:49;;;;;;;;;;;32.40;53.40;;;;;;5031095;28;20300;-51
2021/09/05 13:53:54;;;;;;;;;;;31.80;54.40;;;;;;5031274;28;19928;-55
2021/09/05 13:57:02;;;;;;;;;;;31.30;55.40;;;;;;5031234;28;20236;-54
2021/09/05 14:00:06;;;;;;;;;;;31.90;55.20;;;;;;5031066;28;19917;-51
2021/09/05 14:03:17;;;;;;;;;;;32.90;54.40;;;;;;5030680;28;20007;-54
2021/09/05 14:06:23;;;;;;;;;;;33.40;54.10;;;;;;5031196;28;20291;-52
2021/09/05 14:09:29;;;;;;;;;;;32.70;53.80;;;;;;5030982;28;19916;-51
2021/09/05 14:12:33;;;;;;;;;;;32.40;54.40;;;;;;5030380;28;19916;-51
2021/09/05 14:15:37;;;;;;;;;;;32.10;55.30;;;;;;5030915;28;19912;-52
2021/09/05 14:18:43;;;;;;;;;;;32.10;55.20;;;;;;5030842;28;19920;-52
2021/09/05 14:21:48;;;;;;;;;;;31.70;56.40;;;;;;5030130;28;19948;-51
2021/09/05 14:24:52;;;;;;;;;;;32.40;55.70;;;;;;5030899;28;20379;-53
2021/09/05 14:28:03;;;;;;;;;;;32.80;54.40;;;;;;5030998;28;19916;-51
2021/09/05 14:31:18;;;;;;;;;;;32.80;54.20;;;;;;5030805;28;20014;-50
2021/09/05 14:47:59;;;;;;;;;;;32.10;54.50;;;;;;5030558;28;19972;-50
2021/09/05 14:57:32;;;;;;;;;;;32.90;55.90;;;;;;5030465;28;19920;-51
2021/09/05 15:00:36;;;;;;;;;;;32.60;57.90;;;;;;5029132;28;19916;-53
2021/09/05 15:03:50;;;;;;;;;;;32.50;57.70;;;;;;5029880;28;19920;-50
2021/09/05 15:13:25;;;;;;;;;;;32.10;58.80;;;;;;5029775;28;19913;-51
2021/09/05 15:16:30;;;;;;;;;;;32.10;59.20;;;;;;5030146;28;19936;-50
2021/09/05 15:19:34;;;;;;;;;;;31.90;58.80;;;;;;5030111;28;20429;-50
2021/09/05 15:22:41;;;;;;;;;;;31.60;59.50;;;;;;5029369;28;19920;-54
2021/09/05 15:25:45;;;;;;;;;;;31.70;59.60;;;;;;5030055;28;19916;-52
2021/09/05 15:29:03;;;;;;;;;;;31.50;59.90;;;;;;5030291;28;19909;-52
2021/09/05 15:38:55;;;;;;;;;;;31.20;60.90;;;;;;5030376;28;20283;-52
2021/09/05 15:55:50;;;;;;;;;;;30.90;60.40;;;;;;4971478;28;19936;-54
2021/09/05 15:59:09;;;;;;;;;;;30.70;60.40;;;;;;5029494;28;20429;-52
2021/09/05 16:02:29;;;;;;;;;;;30.50;61.10;;;;;;5029436;28;19980;-52
2021/09/05 16:19:08;;;;;;;;;;;29.50;62.60;;;;;;5029320;28;20298;-51
2021/09/05 16:22:13;;;;;;;;;;;29.40;62.70;;;;;;5033092;28;19924;-51
2021/09/05 16:25:17;;;;;;;;;;;29.30;62.30;;;;;;5032861;28;19916;-50
2021/09/05 16:28:27;;;;;;;;;;;29.20;62.00;;;;;;5033049;28;19920;-52
2021/09/05 16:31:37;;;;;;;;;;;29.00;62.30;;;;;;5032747;28;19932;-52
2021/09/05 16:38:03;;;;;;;;;;;28.80;62.30;;;;;;5032919;28;19916;-51
2021/09/05 16:41:07;;;;;;;;;;;28.70;62.10;;;;;;5032431;28;20298;-51
2021/09/05 16:44:12;;;;;;;;;;;28.50;61.80;;;;;;5032324;28;19924;-51
2021/09/05 16:47:16;;;;;;;;;;;28.40;61.80;;;;;;5032288;28;19919;-54
2021/09/05 16:50:22;;;;;;;;;;;28.20;62.10;;;;;;5032368;28;19916;-51
2021/09/05 16:53:26;;;;;;;;;;;28.10;62.50;;;;;;5032380;28;19920;-51
2021/09/05 16:56:32;;;;;;;;;;;28.00;62.70;;;;;;5032992;28;20279;-50
2021/09/05 16:59:38;;;;;;;;;;;27.80;62.40;;;;;;5032312;28;19916;-51
2021/09/05 17:02:44;;;;;;;;;;;27.60;62.70;;;;;;5031969;28;19924;-51
2021/09/05 17:05:48;;;;;;;;;;;27.40;62.70;;;;;;5031991;28;19920;-50
2021/09/05 17:08:52;;;;;;;;;;;27.30;62.60;;;;;;5032275;28;19916;-51
2021/09/05 17:11:56;;;;;;;;;;;27.00;62.40;;;;;;5031961;28;20394;-50
2021/09/05 17:15:00;;;;;;;;;;;26.80;62.80;;;;;;5031831;28;20241;-50
2021/09/05 17:18:05;;;;;;;;;;;26.60;63.10;;;;;;5032196;28;19920;-52
2021/09/05 17:21:09;;;;;;;;;;;26.50;63.40;;;;;;5031791;28;20422;-51
2021/09/05 17:24:15;;;;;;;;;;;26.30;63.60;;;;;;5031604;28;19963;-51
2021/09/05 17:27:19;;;;;;;;;;;26.10;63.60;;;;;;5031985;28;20406;-50
2021/09/05 17:30:26;;;;;;;;;;;26.00;63.70;;;;;;5031806;28;19909;-50
2021/09/05 17:33:30;;;;;;;;;;;25.80;64.00;;;;;;5031530;28;20014;-52
2021/09/05 17:36:39;;;;;;;;;;;25.60;63.90;;;;;;5031731;28;20318;-56
2021/09/05 17:39:43;;;;;;;;;;;25.50;64.30;;;;;;5031604;28;19916;-52
2021/09/05 17:42:48;;;;;;;;;;;25.40;64.80;;;;;;5031351;28;19931;-50
2021/09/05 17:45:52;;;;;;;;;;;25.20;65.40;;;;;;5031351;28;19920;-51
2021/09/05 17:48:56;;;;;;;;;;;25.00;65.90;;;;;;5031266;28;19916;-50
2021/09/05 17:52:01;;;;;;;;;;;24.80;66.20;;;;;;5031557;28;19909;-53
2021/09/05 17:55:09;;;;;;;;;;;24.60;66.60;;;;;;5030164;28;19913;-52
2021/09/05 17:58:14;;;;;;;;;;;24.50;66.90;;;;;;5031394;28;19920;-50
2021/09/05 18:01:18;;;;;;;;;;;24.40;67.00;;;;;;5031058;28;19924;-54
2021/09/05 18:04:26;;;;;;;;;;;24.30;67.20;;;;;;5031294;28;19920;-53
2021/09/05 18:07:34;;;;;;;;;;;24.20;67.50;;;;;;5031547;28;19916;-50
2021/09/05 18:10:41;;;;;;;;;;;24.00;68.00;;;;;;5031549;28;20390;-51
2021/09/05 18:13:47;;;;;;;;;;;24.00;68.40;;;;;;5031350;28;19932;-50
2021/09/05 18:16:52;;;;;;;;;;;23.90;68.30;;;;;;5031619;28;19916;-53
2021/09/05 18:20:00;;;;;;;;;;;23.70;68.30;;;;;;5031462;28;19916;-50
2021/09/05 18:23:04;;;;;;;;;;;23.70;68.60;;;;;;5031045;28;20354;-51
2021/09/05 18:26:08;;;;;;;;;;;23.60;68.60;;;;;;5030152;28;19920;-50
2021/09/05 18:29:12;;;;;;;;;;;23.50;68.60;;;;;;5031229;28;19920;-50
2021/09/05 18:32:16;;;;;;;;;;;23.40;69.00;;;;;;5030832;28;20394;-50
2021/09/05 18:35:20;;;;;;;;;;;23.30;69.00;;;;;;5030940;28;19916;-50
2021/09/05 18:38:25;;;;;;;;;;;23.30;68.90;;;;;;5030831;28;19928;-54
2021/09/05 18:41:29;;;;;;;;;;;23.20;68.80;;;;;;5030882;28;19916;-50
2021/09/05 18:44:35;;;;;;;;;;;23.10;69.50;;;;;;5030044;28;19920;-52
2021/09/05 18:47:43;;;;;;;;;;;23.10;69.70;;;;;;5030018;28;19920;-50
2021/09/05 18:50:48;;;;;;;;;;;22.90;69.90;;;;;;5030526;28;20303;-53
2021/09/05 18:53:55;;;;;;;;;;;22.90;70.40;;;;;;5030260;28;19920;-52
2021/09/05 18:57:01;;;;;;;;;;;22.80;70.50;;;;;;5030060;28;19916;-50
2021/09/05 19:00:07;;;;;;;;;;;22.70;71.00;;;;;;5029323;28;19917;-50
2021/09/05 19:03:11;;;;;;;;;;;22.60;69.00;;;;;;5030354;28;19920;-52
2021/09/05 19:06:18;;;;;;;;;;;22.80;70.00;;;;;;5029030;28;19916;-53
2021/09/05 19:09:23;;;;;;;;;;;22.70;70.80;;;;;;5030375;28;19920;-50
2021/09/05 19:12:28;;;;;;;;;;;22.60;70.80;;;;;;5028964;28;19920;-55
2021/09/05 19:15:35;;;;;;;;;;;22.50;71.20;;;;;;5029833;28;20163;-50
2021/09/05 19:18:41;;;;;;;;;;;22.40;71.40;;;;;;5030121;28;19916;-51